Time;durP1;ratioP1;P1;durP2;ratioP2;P2;SDS_P1;SDS_P2;PMS_P1;PMS_P2;Temp;Humidity;BMP_temperature;BMP_pressure;BME280_temperature;BME280_humidity;BME280_pressure;Samples;Min_cycle;Max_cycle;Signal;HPM_P1;HPM_P2
2023/11/26 00:01:43;;;;;;;1.60;1.50;;;;;;;1.76;100.00;98183.09;5101706;28;20202;-79
2023/11/26 00:04:10;;;;;;;1.50;1.40;;;;;;;1.77;100.00;98184.72;5103239;28;20199;-79
2023/11/26 00:06:43;;;;;;;1.40;1.23;;;;;;;1.75;100.00;98189.38;5102186;28;20302;-79
2023/11/26 00:09:13;;;;;;;2.03;1.30;;;;;;;1.68;100.00;98189.34;5104161;28;20584;-79
2023/11/26 00:11:39;;;;;;;1.53;1.43;;;;;;;1.67;100.00;98203.59;5099704;28;20188;-80
2023/11/26 00:14:08;;;;;;;1.27;1.17;;;;;;;1.64;100.00;98206.59;5103077;28;20203;-78
2023/11/26 00:16:36;;;;;;;2.17;1.20;;;;;;;1.67;100.00;98205.41;5106847;28;20199;-79
2023/11/26 00:19:03;;;;;;;1.60;1.33;;;;;;;1.69;100.00;98208.66;5104172;28;20199;-80
2023/11/26 00:21:37;;;;;;;1.50;1.33;;;;;;;1.65;100.00;98205.59;5109991;28;20187;-80
2023/11/26 00:24:07;;;;;;;1.50;1.40;;;;;;;1.82;100.00;98207.91;5107518;28;20206;-79
2023/11/26 00:26:33;;;;;;;1.70;1.50;;;;;;;1.82;100.00;98216.59;5111051;28;20204;-80
2023/11/26 00:29:02;;;;;;;1.40;1.30;;;;;;;1.80;100.00;98217.84;5108524;28;20241;-78
2023/11/26 00:31:32;;;;;;;1.53;1.43;;;;;;;1.76;100.00;98220.88;5112611;28;20306;-78
2023/11/26 00:34:04;;;;;;;1.93;1.60;;;;;;;1.78;100.00;98213.56;5094726;28;20199;-79
2023/11/26 00:36:33;;;;;;;1.30;1.20;;;;;;;1.71;100.00;98230.41;5101688;28;20237;-79
2023/11/26 00:39:02;;;;;;;1.40;1.30;;;;;;;1.74;100.00;98232.63;5100986;28;20184;-78
2023/11/26 00:41:31;;;;;;;1.30;1.20;;;;;;;1.76;100.00;98233.28;5090437;28;20208;-77
2023/11/26 00:43:58;;;;;;;1.50;1.40;;;;;;;1.72;100.00;98237.31;5096211;28;20279;-77
2023/11/26 00:46:25;;;;;;;1.93;1.40;;;;;;;1.67;100.00;98245.81;5096826;28;20225;-81
2023/11/26 00:48:54;;;;;;;1.50;1.40;;;;;;;1.71;100.00;98247.06;5096598;28;20262;-78
2023/11/26 00:51:27;;;;;;;1.60;1.50;;;;;;;1.64;100.00;98245.38;5092036;28;20275;-78
2023/11/26 00:53:54;;;;;;;1.20;1.20;;;;;;;1.69;100.00;98249.06;5098296;28;20253;-79
2023/11/26 00:56:20;;;;;;;1.50;1.40;;;;;;;1.71;100.00;98254.16;5094914;28;20229;-79
2023/11/26 00:58:47;;;;;;;1.40;1.30;;;;;;;1.80;100.00;98249.53;5096949;28;20286;-78
2023/11/26 01:01:17;;;;;;;1.57;1.30;;;;;;;1.71;100.00;98257.63;5100606;28;20191;-79
2023/11/26 01:03:46;;;;;;;1.27;1.17;;;;;;;1.83;100.00;98257.84;5092916;28;20216;-78
2023/11/26 01:06:13;;;;;;;2.10;1.20;;;;;;;1.72;100.00;98263.72;5094467;28;20202;-79
2023/11/26 01:08:40;;;;;;;1.40;1.27;;;;;;;1.72;100.00;98269.00;5094377;28;20238;-82
2023/11/26 01:11:13;;;;;;;1.40;1.30;;;;;;;1.66;100.00;98270.59;5104733;28;20198;-77
2023/11/26 01:13:41;;;;;;;1.30;1.20;;;;;;;1.68;100.00;98273.84;5098484;28;20201;-79
2023/11/26 01:16:12;;;;;;;1.27;1.17;;;;;;;1.71;100.00;98284.03;5100648;28;20198;-79
2023/11/26 01:18:40;;;;;;;1.20;1.10;;;;;;;1.73;100.00;98281.97;5101532;28;20196;-79
2023/11/26 01:21:09;;;;;;;2.37;1.50;;;;;;;1.69;100.00;98287.84;5104406;28;20204;-79
2023/11/26 01:23:42;;;;;;;1.37;1.27;;;;;;;1.71;100.00;98289.31;5102850;28;20211;-80
2023/11/26 01:26:14;;;;;;;1.70;1.40;;;;;;;1.69;100.00;98288.69;5102525;28;20203;-79
2023/11/26 01:28:42;;;;;;;1.57;1.47;;;;;;;1.61;100.00;98294.13;5099587;28;20251;-79
2023/11/26 01:31:16;;;;;;;1.70;1.60;;;;;;;1.66;100.00;98294.34;5104204;28;20191;-78
2023/11/26 01:33:45;;;;;;;1.60;1.50;;;;;;;1.61;100.00;98299.41;5096979;28;20200;-79
2023/11/26 01:36:11;;;;;;;1.50;1.40;;;;;;;1.65;100.00;98295.34;5098586;28;20267;-77
2023/11/26 01:38:39;;;;;;;1.60;1.50;;;;;;;1.68;100.00;98296.81;5107896;28;20200;-79
2023/11/26 01:41:06;;;;;;;1.60;1.40;;;;;;;1.82;100.00;98290.56;5091207;28;20199;-78
2023/11/26 01:43:33;;;;;;;1.50;1.40;;;;;;;1.77;100.00;98291.13;5101345;28;20202;-79
2023/11/26 01:46:05;;;;;;;1.30;1.20;;;;;;;1.82;100.00;98301.13;5104745;28;20191;-79
2023/11/26 01:48:33;;;;;;;1.20;1.10;;;;;;;1.95;100.00;98295.09;5111123;28;20231;-80
2023/11/26 01:51:08;;;;;;;1.40;1.30;;;;;;;1.94;100.00;98302.22;5098339;28;20192;-79
2023/11/26 01:53:36;;;;;;;1.60;1.50;;;;;;;2.06;100.00;98311.19;5098768;28;20208;-78
2023/11/26 01:56:06;;;;;;;1.80;1.40;;;;;;;1.94;100.00;98294.28;5100558;28;20208;-79
2023/11/26 01:58:34;;;;;;;1.40;1.30;;;;;;;1.85;100.00;98303.38;5104578;28;20718;-78
2023/11/26 02:01:01;;;;;;;1.50;1.40;;;;;;;1.85;100.00;98308.66;5099428;28;20191;-80
2023/11/26 02:03:29;;;;;;;1.63;1.30;;;;;;;1.86;100.00;98309.50;5102516;28;20215;-81
2023/11/26 02:05:58;;;;;;;1.30;1.20;;;;;;;1.90;100.00;98306.25;5105277;28;20202;-78
2023/11/26 02:08:26;;;;;;;1.50;1.40;;;;;;;1.91;100.00;98309.72;5094329;28;20227;-79
2023/11/26 02:10:54;;;;;;;1.53;1.40;;;;;;;1.84;100.00;98322.06;5102405;28;20228;-79
2023/11/26 02:13:25;;;;;;;1.50;1.40;;;;;;;1.83;100.00;98309.84;5096405;28;20672;-79
2023/11/26 02:15:54;;;;;;;1.50;1.40;;;;;;;1.90;100.00;98306.25;5108905;28;20223;-77
2023/11/26 02:18:22;;;;;;;1.40;1.30;;;;;;;1.90;100.00;98308.91;5091886;28;20655;-79
2023/11/26 02:20:54;;;;;;;1.50;1.40;;;;;;;1.93;100.00;98311.13;5091304;28;20208;-78
2023/11/26 02:23:20;;;;;;;1.50;1.40;;;;;;;1.90;100.00;98319.47;5111928;28;20204;-81
2023/11/26 02:25:49;;;;;;;1.40;1.30;;;;;;;1.98;100.00;98314.00;5103301;28;20260;-78
2023/11/26 02:28:18;;;;;;;3.90;1.33;;;;;;;1.85;100.00;98318.41;5110365;28;20203;-79
2023/11/26 02:30:47;;;;;;;1.40;1.17;;;;;;;1.86;100.00;98322.69;5113069;28;20264;-78
2023/11/26 02:33:14;;;;;;;1.40;1.30;;;;;;;1.82;100.00;98321.47;5105280;28;20195;-78
2023/11/26 02:35:41;;;;;;;1.47;1.37;;;;;;;1.75;100.00;98329.34;5106329;28;20202;-80
2023/11/26 02:38:11;;;;;;;1.50;1.40;;;;;;;1.73;100.00;98341.91;5109516;28;20214;-80
2023/11/26 02:40:38;;;;;;;1.50;1.40;;;;;;;1.66;100.00;98347.16;5096085;28;20194;-79
2023/11/26 02:43:05;;;;;;;1.43;1.33;;;;;;;1.73;100.00;98342.72;5069943;28;20200;-79
2023/11/26 02:45:33;;;;;;;1.90;1.47;;;;;;;1.75;100.00;98338.06;5114200;28;20211;-79
2023/11/26 02:48:00;;;;;;;1.87;1.40;;;;;;;1.92;100.00;98346.47;5115701;28;20208;-80
2023/11/26 02:50:28;;;;;;;1.30;1.20;;;;;;;1.86;100.00;98339.34;5107997;28;20244;-78
2023/11/26 02:52:57;;;;;;;1.70;1.50;;;;;;;1.79;100.00;98338.50;5110085;28;20196;-79
2023/11/26 02:55:28;;;;;;;1.50;1.40;;;;;;;1.74;100.00;98344.34;5079280;28;20312;-78
2023/11/26 02:57:57;;;;;;;1.50;1.40;;;;;;;1.76;100.00;98339.72;5095143;28;20198;-78
2023/11/26 03:00:24;;;;;;;1.40;1.30;;;;;;;1.65;100.00;98344.72;5099729;28;20199;-79
2023/11/26 03:02:51;;;;;;;1.50;1.40;;;;;;;1.71;100.00;98336.84;5111324;28;20215;-78
2023/11/26 03:05:19;;;;;;;1.50;1.40;;;;;;;1.72;100.00;98346.41;5108271;28;20720;-78
2023/11/26 03:07:47;;;;;;;1.20;1.10;;;;;;;1.72;100.00;98356.13;5114360;28;20290;-79
2023/11/26 03:13:07;;;;;;;1.80;1.70;;;;;;;1.67;100.00;98363.81;5106197;28;20199;-78
2023/11/26 03:15:40;;;;;;;1.60;1.50;;;;;;;1.59;100.00;98362.13;5089175;28;20672;-78
2023/11/26 03:18:08;;;;;;;1.20;1.10;;;;;;;1.59;100.00;98363.94;5099820;28;20200;-78
2023/11/26 03:20:40;;;;;;;2.00;1.30;;;;;;;1.46;100.00;98364.69;5105380;28;20241;-79
2023/11/26 03:23:09;;;;;;;1.37;1.27;;;;;;;1.56;100.00;98372.25;5099331;28;20382;-78
2023/11/26 03:25:38;;;;;;;1.47;1.37;;;;;;;1.55;100.00;98371.44;5086261;28;20200;-79
2023/11/26 03:28:06;;;;;;;1.40;1.30;;;;;;;1.51;100.00;98374.66;5100343;28;20216;-79
2023/11/26 03:30:34;;;;;;;1.63;1.40;;;;;;;1.50;100.00;98373.84;5098159;28;20184;-80
2023/11/26 03:33:04;;;;;;;1.33;1.23;;;;;;;1.50;100.00;98370.38;5085955;28;20202;-83
2023/11/26 03:35:35;;;;;;;1.30;1.20;;;;;;;1.57;100.00;98385.28;5098458;28;20285;-82
2023/11/26 03:38:02;;;;;;;1.53;1.40;;;;;;;1.45;100.00;98383.34;5081884;28;20245;-82
2023/11/26 03:40:29;;;;;;;1.40;1.30;;;;;;;1.43;100.00;98388.00;5088941;28;20410;-79
2023/11/26 03:42:58;;;;;;;1.27;1.17;;;;;;;1.36;100.00;98389.75;5113058;27;20195;-80
2023/11/26 03:45:26;;;;;;;1.50;1.10;;;;;;;1.46;100.00;98390.25;5107499;28;20275;-81
2023/11/26 03:47:53;;;;;;;1.30;1.20;;;;;;;1.36;100.00;98389.75;5100526;28;20209;-80
2023/11/26 03:50:21;;;;;;;1.63;1.40;;;;;;;1.38;100.00;98398.31;5101382;28;20253;-80
2023/11/26 03:52:48;;;;;;;1.30;1.20;;;;;;;1.42;100.00;98389.84;5106066;28;20303;-81
2023/11/26 03:55:17;;;;;;;0.83;0.80;;;;;;;1.40;100.00;98405.03;5102402;28;20248;-78
2023/11/26 03:57:51;;;;;;;1.13;0.93;;;;;;;1.49;100.00;98416.28;5107554;28;20658;-80
2023/11/26 04:00:22;;;;;;;0.87;0.87;;;;;;;1.41;100.00;98405.84;5096684;28;20203;-80
2023/11/26 04:02:49;;;;;;;1.00;0.80;;;;;;;1.50;100.00;98415.25;5100238;28;20208;-78
2023/11/26 04:05:20;;;;;;;1.33;1.00;;;;;;;1.50;100.00;98418.72;5114255;28;20199;-79
2023/11/26 04:07:51;;;;;;;1.00;0.90;;;;;;;1.51;100.00;98408.97;5094325;28;20784;-78
2023/11/26 04:10:20;;;;;;;1.50;1.17;;;;;;;1.48;100.00;98427.84;5093793;28;20196;-79
2023/11/26 04:12:58;;;;;;;0.93;0.80;;;;;;;1.49;100.00;98422.38;5093963;28;20208;-80
2023/11/26 04:15:28;;;;;;;1.10;0.90;;;;;;;1.39;100.00;98424.53;5104158;28;20219;-81
2023/11/26 04:17:56;;;;;;;1.10;1.00;;;;;;;1.38;100.00;98416.78;5105603;28;20192;-79
2023/11/26 04:20:23;;;;;;;1.40;0.97;;;;;;;1.28;100.00;98420.56;5106219;28;20223;-79
2023/11/26 04:22:52;;;;;;;0.80;0.80;;;;;;;1.28;100.00;98422.41;5094370;28;20227;-79
2023/11/26 04:25:19;;;;;;;1.00;0.87;;;;;;;1.36;100.00;98424.06;5109257;28;20191;-80
2023/11/26 04:27:48;;;;;;;1.07;0.80;;;;;;;1.35;100.00;98430.38;5113782;28;20285;-77
2023/11/26 04:30:18;;;;;;;0.97;0.90;;;;;;;1.39;100.00;98426.34;5093423;28;20184;-81
2023/11/26 04:32:49;;;;;;;0.80;0.80;;;;;;;1.47;100.00;98436.75;5096212;28;20204;-80
2023/11/26 04:35:20;;;;;;;1.63;1.07;;;;;;;1.33;100.00;98436.66;5097924;28;20192;-78
2023/11/26 04:37:49;;;;;;;0.93;0.90;;;;;;;1.34;100.00;98442.75;5099114;28;20206;-79
2023/11/26 04:40:17;;;;;;;0.70;0.70;;;;;;;1.31;100.00;98448.38;5096130;28;20663;-79
2023/11/26 04:42:44;;;;;;;1.03;1.00;;;;;;;1.40;100.00;98438.56;5104068;28;20219;-78
2023/11/26 04:45:11;;;;;;;1.20;1.10;;;;;;;1.44;100.00;98453.00;5101840;28;20188;-79
2023/11/26 04:47:40;;;;;;;1.10;0.90;;;;;;;1.49;100.00;98446.16;5103342;28;20281;-79
2023/11/26 04:50:12;;;;;;;1.37;1.00;;;;;;;1.45;100.00;98444.88;5100741;28;20223;-80
2023/11/26 04:52:39;;;;;;;1.17;0.80;;;;;;;1.47;100.00;98457.88;5094830;28;20194;-82
2023/11/26 04:55:06;;;;;;;1.10;1.00;;;;;;;1.41;100.00;98462.09;5096837;28;20195;-79
2023/11/26 04:57:35;;;;;;;1.50;1.00;;;;;;;1.42;100.00;98462.91;5101388;28;20196;-80
2023/11/26 05:00:03;;;;;;;1.13;0.80;;;;;;;1.55;100.00;98470.94;5094407;28;20215;-81
2023/11/26 05:02:36;;;;;;;1.00;0.90;;;;;;;1.61;100.00;98478.09;5094757;28;20231;-83
2023/11/26 05:05:08;;;;;;;1.20;0.90;;;;;;;1.52;100.00;98482.72;5091793;28;20203;-80
2023/11/26 05:07:38;;;;;;;1.60;0.90;;;;;;;1.55;100.00;98489.41;5092695;28;20208;-79
2023/11/26 05:10:09;;;;;;;1.53;0.93;;;;;;;1.54;100.00;98493.88;5097787;28;20199;-79
2023/11/26 05:12:37;;;;;;;1.30;1.00;;;;;;;1.52;100.00;98506.47;5096136;28;20192;-79
2023/11/26 05:15:04;;;;;;;0.80;0.80;;;;;;;1.57;100.00;98514.63;5095012;28;20249;-80
2023/11/26 05:17:34;;;;;;;1.53;1.03;;;;;;;1.47;100.00;98510.66;5105203;28;20241;-80
2023/11/26 05:20:13;;;;;;;0.80;0.80;;;;;;;1.44;100.00;98513.69;5112915;28;20287;-79
2023/11/26 05:22:41;;;;;;;1.30;0.90;;;;;;;1.36;100.00;98527.00;5109469;28;20191;-83
2023/11/26 05:25:10;;;;;;;2.93;0.83;;;;;;;1.39;100.00;98531.91;5095073;28;20257;-79
2023/11/26 05:27:36;;;;;;;1.07;0.97;;;;;;;1.33;100.00;98539.56;5095057;28;20203;-80
2023/11/26 05:30:03;;;;;;;1.30;0.80;;;;;;;1.33;100.00;98542.22;5093539;28;20184;-80
2023/11/26 05:32:30;;;;;;;1.20;0.90;;;;;;;1.42;100.00;98547.38;5097437;28;20180;-79
2023/11/26 05:35:12;;;;;;;1.10;0.80;;;;;;;1.35;100.00;98549.13;5087019;28;20200;-80
2023/11/26 05:37:42;;;;;;;1.07;0.77;;;;;;;1.39;100.00;98568.88;5076869;28;20203;-80
2023/11/26 05:40:13;;;;;;;1.17;0.70;;;;;;;1.21;100.00;98562.16;5078790;28;20271;-79
2023/11/26 05:42:40;;;;;;;1.73;0.80;;;;;;;1.20;100.00;98580.84;5094843;28;20191;-80
2023/11/26 05:45:11;;;;;;;1.00;0.90;;;;;;;1.13;100.00;98586.03;5095367;28;20203;-80
2023/11/26 05:47:41;;;;;;;0.80;0.60;;;;;;;1.18;100.00;98580.19;5090868;28;20253;-79
2023/11/26 05:50:12;;;;;;;0.83;0.70;;;;;;;1.26;100.00;98588.03;5090323;28;20282;-79
2023/11/26 05:52:42;;;;;;;1.87;0.80;;;;;;;1.07;100.00;98592.06;5096050;28;20331;-79
2023/11/26 05:55:10;;;;;;;0.87;0.70;;;;;;;1.03;100.00;98595.22;5098140;28;20199;-79
2023/11/26 05:57:40;;;;;;;0.97;0.83;;;;;;;0.83;100.00;98592.34;5098306;28;20352;-80
2023/11/26 06:00:09;;;;;;;1.13;0.80;;;;;;;0.95;100.00;98593.50;5089907;28;20239;-79
2023/11/26 06:02:40;;;;;;;1.47;0.80;;;;;;;0.75;100.00;98592.41;5107415;28;20222;-80
2023/11/26 06:05:08;;;;;;;1.63;0.90;;;;;;;0.84;100.00;98605.31;5094435;28;20184;-79
2023/11/26 06:07:38;;;;;;;0.77;0.77;;;;;;;0.86;100.00;98620.97;5101095;28;20199;-80
2023/11/26 06:10:13;;;;;;;0.83;0.70;;;;;;;0.95;100.00;98622.53;5100059;28;20710;-80
2023/11/26 06:12:41;;;;;;;0.80;0.80;;;;;;;0.84;100.00;98634.34;5101882;28;20210;-78
2023/11/26 06:15:10;;;;;;;1.13;0.80;;;;;;;0.89;100.00;98633.78;5096944;28;20261;-80
2023/11/26 06:17:38;;;;;;;0.80;0.80;;;;;;;0.87;100.00;98631.34;5097562;28;20189;-79
2023/11/26 06:20:08;;;;;;;2.23;0.80;;;;;;;0.87;100.00;98641.91;5099240;28;20205;-80
2023/11/26 06:22:35;;;;;;;1.80;0.90;;;;;;;0.94;100.00;98643.78;5100760;28;20195;-79
2023/11/26 06:25:06;;;;;;;0.70;0.70;;;;;;;0.92;100.00;98648.44;5105930;28;20188;-80
2023/11/26 06:27:33;;;;;;;1.10;0.60;;;;;;;0.79;100.00;98649.88;5098008;28;20201;-78
2023/11/26 06:30:05;;;;;;;1.20;0.80;;;;;;;0.96;100.00;98665.53;5093354;28;20216;-80
2023/11/26 06:32:40;;;;;;;3.13;0.90;;;;;;;0.95;100.00;98670.00;5091597;28;20195;-79
2023/11/26 06:35:09;;;;;;;0.80;0.80;;;;;;;0.97;100.00;98685.66;5104290;28;20212;-82
2023/11/26 06:37:57;;;;;;;0.77;0.77;;;;;;;0.95;100.00;98691.09;5093231;28;20207;-79
2023/11/26 06:40:24;;;;;;;1.30;0.90;;;;;;;0.98;100.00;98682.00;5101261;28;20273;-79
2023/11/26 06:42:51;;;;;;;0.70;0.67;;;;;;;0.94;100.00;98681.53;5100219;28;20181;-79
2023/11/26 06:45:28;;;;;;;1.47;0.80;;;;;;;1.03;100.00;98688.34;5111394;28;20546;-80
2023/11/26 06:48:01;;;;;;;1.33;0.77;;;;;;;1.14;100.00;98680.00;5107482;28;20709;-80
2023/11/26 06:50:29;;;;;;;2.17;0.90;;;;;;;1.12;100.00;98681.19;5099038;28;20236;-80
2023/11/26 06:52:59;;;;;;;1.13;0.80;;;;;;;1.09;100.00;98690.28;5097401;28;20188;-80
2023/11/26 06:55:36;;;;;;;1.07;0.70;;;;;;;1.11;100.00;98692.75;5101421;28;20197;-80
2023/11/26 06:58:04;;;;;;;1.03;0.73;;;;;;;1.01;100.00;98706.19;5100125;28;20649;-80
2023/11/26 07:00:33;;;;;;;0.60;0.60;;;;;;;0.89;100.00;98703.19;5111888;28;20225;-82
2023/11/26 07:03:00;;;;;;;0.73;0.60;;;;;;;0.78;100.00;98705.44;5114700;28;20207;-79
2023/11/26 07:05:27;;;;;;;1.03;0.50;;;;;;;0.67;100.00;98713.78;5115443;28;20270;-78
2023/11/26 07:07:58;;;;;;;0.50;0.40;;;;;;;0.66;100.00;98712.13;5092620;28;20198;-79
2023/11/26 07:10:25;;;;;;;0.43;0.40;;;;;;;0.58;100.00;98712.22;5102663;28;20862;-80
2023/11/26 07:12:55;;;;;;;3.93;0.70;;;;;;;0.38;100.00;98727.69;5105593;28;20207;-81
2023/11/26 07:15:23;;;;;;;0.60;0.60;;;;;;;0.32;100.00;98723.97;5096798;28;20200;-80
2023/11/26 07:17:50;;;;;;;1.00;0.53;;;;;;;0.30;100.00;98735.66;5092433;28;20209;-80
2023/11/26 07:20:21;;;;;;;0.90;0.77;;;;;;;0.46;100.00;98732.09;5109036;28;20200;-81
2023/11/26 07:22:48;;;;;;;1.67;0.87;;;;;;;0.44;100.00;98741.00;5101914;28;20319;-80
2023/11/26 07:25:15;;;;;;;0.73;0.63;;;;;;;0.53;100.00;98741.75;5103441;28;20687;-80
2023/11/26 07:27:44;;;;;;;1.00;0.80;;;;;;;0.61;100.00;98739.03;5105786;28;20194;-79
2023/11/26 07:30:11;;;;;;;1.77;0.80;;;;;;;0.60;100.00;98755.88;5106586;28;20212;-80
2023/11/26 07:32:42;;;;;;;0.63;0.60;;;;;;;0.61;100.00;98751.41;5096143;28;20295;-78
2023/11/26 07:35:11;;;;;;;1.03;0.70;;;;;;;0.54;100.00;98753.94;5111762;27;20747;-80
2023/11/26 07:38:08;;;;;;;1.47;0.70;;;;;;;0.58;100.00;98751.75;5092465;28;20667;-80
2023/11/26 07:40:38;;;;;;;0.70;0.70;;;;;;;0.62;100.00;98753.84;5084312;28;20207;-79
2023/11/26 07:43:09;;;;;;;0.50;0.40;;;;;;;0.66;100.00;98752.50;5092246;28;20193;-80
2023/11/26 07:45:40;;;;;;;0.97;0.60;;;;;;;0.74;100.00;98744.53;5087832;28;20195;-82
2023/11/26 07:48:07;;;;;;;0.73;0.33;;;;;;;0.82;100.00;98754.19;5088746;28;20192;-80
2023/11/26 07:50:38;;;;;;;0.73;0.73;;;;;;;0.78;100.00;98752.91;5092201;28;20282;-79
2023/11/26 07:53:06;;;;;;;0.70;0.50;;;;;;;0.86;100.00;98756.28;5090693;28;20652;-81
2023/11/26 07:55:36;;;;;;;0.73;0.53;;;;;;;0.92;100.00;98749.47;5090153;28;20191;-79
2023/11/26 07:58:02;;;;;;;0.40;0.40;;;;;;;0.83;100.00;98751.38;5089651;28;20192;-79
2023/11/26 08:00:31;;;;;;;0.40;0.40;;;;;;;0.84;100.00;98741.66;5090432;28;20728;-80
2023/11/26 08:03:00;;;;;;;0.40;0.33;;;;;;;0.88;100.00;98749.03;5089128;28;20240;-79
2023/11/26 08:05:28;;;;;;;0.50;0.40;;;;;;;0.86;100.00;98752.84;5099964;28;20207;-79
2023/11/26 08:07:55;;;;;;;0.77;0.40;;;;;;;0.92;100.00;98752.13;5100036;28;20253;-80
2023/11/26 08:10:26;;;;;;;0.67;0.43;;;;;;;0.86;100.00;98747.56;5100601;28;20211;-79
2023/11/26 08:12:57;;;;;;;0.67;0.40;;;;;;;0.85;100.00;98756.47;5096258;28;20226;-81
2023/11/26 08:15:25;;;;;;;1.13;0.50;;;;;;;0.99;100.00;98771.50;5099771;28;20188;-79
2023/11/26 08:17:56;;;;;;;0.70;0.50;;;;;;;0.89;100.00;98765.66;5097360;28;20669;-79
2023/11/26 08:20:24;;;;;;;0.30;0.27;;;;;;;0.86;100.00;98766.84;5094977;28;20223;-81
2023/11/26 08:22:52;;;;;;;0.87;0.50;;;;;;;0.87;100.00;98760.56;5099812;28;20196;-79
2023/11/26 08:25:23;;;;;;;0.70;0.40;;;;;;;0.95;100.00;98762.31;5099168;28;20187;-81
2023/11/26 08:27:51;;;;;;;1.23;0.40;;;;;;;1.04;100.00;98774.41;5077202;28;20189;-80
2023/11/26 08:33:10;;;;;;;0.30;0.30;;;;;;;1.29;100.00;98790.84;5088992;28;20199;-79
2023/11/26 08:35:42;;;;;;;0.40;0.40;;;;;;;1.35;100.00;98784.84;5088471;28;20249;-80
2023/11/26 08:38:13;;;;;;;1.17;0.50;;;;;;;1.26;100.00;98785.94;5084850;28;20740;-81
2023/11/26 08:40:42;;;;;;;1.07;0.97;;;;;;;1.27;100.00;98792.81;5092844;28;20204;-80
2023/11/26 08:43:13;;;;;;;3.70;3.40;;;;;;;1.25;100.00;98800.94;5094271;28;20181;-80
2023/11/26 08:45:40;;;;;;;1.33;0.37;;;;;;;1.32;100.00;98809.75;5100278;28;20203;-80
2023/11/26 08:48:17;;;;;;;0.80;0.50;;;;;;;1.45;100.00;98814.41;5092937;28;20184;-82
2023/11/26 08:50:47;;;;;;;1.63;0.60;;;;;;;1.53;100.00;98821.44;5090599;28;20209;-78
2023/11/26 08:53:16;;;;;;;1.67;0.60;;;;;;;1.65;100.00;98825.25;5088015;28;20192;-80
2023/11/26 08:55:43;;;;;;;0.47;0.40;;;;;;;1.62;100.00;98828.25;5092172;28;20211;-78
2023/11/26 08:58:10;;;;;;;0.67;0.67;;;;;;;1.67;100.00;98834.66;5099593;28;20214;-79
2023/11/26 09:00:36;;;;;;;1.07;0.70;;;;;;;1.55;100.00;98835.25;5098343;28;20275;-80
2023/11/26 09:03:06;;;;;;;0.73;0.50;;;;;;;1.42;100.00;98833.25;5080253;28;20223;-81
2023/11/26 09:05:33;;;;;;;1.97;0.70;;;;;;;1.35;100.00;98834.16;5092712;28;20191;-81
2023/11/26 09:08:00;;;;;;;0.90;0.77;;;;;;;1.31;100.00;98844.25;5091977;28;20254;-80
2023/11/26 09:10:28;;;;;;;0.50;0.40;;;;;;;1.38;100.00;98845.16;5082016;28;20227;-79
2023/11/26 09:12:55;;;;;;;0.80;0.40;;;;;;;1.36;100.00;98857.72;5086290;28;20203;-81
2023/11/26 09:15:27;;;;;;;0.70;0.63;;;;;;;1.35;100.00;98860.56;5090048;28;20193;-79
2023/11/26 09:17:54;;;;;;;0.60;0.60;;;;;;;1.29;100.00;98859.44;5092199;28;20214;-80
2023/11/26 09:20:21;;;;;;;1.33;0.50;;;;;;;1.43;100.00;98857.84;5097362;28;20187;-80
2023/11/26 09:22:48;;;;;;;0.80;0.53;;;;;;;1.50;100.00;98858.72;5093180;28;20283;-79
2023/11/26 09:25:14;;;;;;;0.93;0.53;;;;;;;1.68;100.00;98869.78;5089253;28;20191;-80
2023/11/26 09:27:41;;;;;;;0.57;0.50;;;;;;;1.76;100.00;98867.88;5072757;28;20218;-78
2023/11/26 09:30:08;;;;;;;0.70;0.60;;;;;;;1.91;100.00;98861.78;5105395;28;20235;-80
2023/11/26 09:32:37;;;;;;;0.60;0.60;;;;;;;1.92;100.00;98860.75;5091513;28;20250;-80
2023/11/26 09:35:10;;;;;;;1.00;0.53;;;;;;;1.94;100.00;98858.75;5084809;28;20219;-79
2023/11/26 09:37:41;;;;;;;1.13;0.70;;;;;;;1.87;100.00;98855.22;5086534;28;20191;-79
2023/11/26 09:40:11;;;;;;;0.83;0.63;;;;;;;2.00;100.00;98855.41;5099859;28;20194;-79
2023/11/26 09:42:41;;;;;;;0.80;0.70;;;;;;;2.01;100.00;98849.09;5096155;28;20185;-79
2023/11/26 09:45:10;;;;;;;0.70;0.50;;;;;;;2.02;100.00;98846.28;5093848;28;20186;-80
2023/11/26 09:47:42;;;;;;;1.10;0.50;;;;;;;2.15;100.00;98848.25;5087685;28;20187;-80
2023/11/26 09:50:09;;;;;;;1.17;0.80;;;;;;;2.30;100.00;98843.75;5100325;28;20236;-79
2023/11/26 09:52:47;;;;;;;1.03;0.70;;;;;;;2.64;100.00;98843.94;5097822;28;20678;-78
2023/11/26 09:55:13;;;;;;;2.13;0.70;;;;;;;2.87;100.00;98859.63;5099266;28;20204;-78
2023/11/26 09:57:40;;;;;;;0.80;0.60;;;;;;;3.19;100.00;98849.53;5095047;28;20187;-80
2023/11/26 10:00:16;;;;;;;1.13;0.57;;;;;;;3.44;100.00;98866.63;5089859;28;20195;-80
2023/11/26 10:02:45;;;;;;;0.90;0.60;;;;;;;3.43;100.00;98871.13;5105323;28;20214;-80
2023/11/26 10:05:24;;;;;;;0.80;0.80;;;;;;;3.32;100.00;98862.84;5102759;28;20289;-81
2023/11/26 10:07:54;;;;;;;0.57;0.50;;;;;;;3.07;100.00;98862.47;5100094;28;20199;-80
2023/11/26 10:10:24;;;;;;;0.80;0.63;;;;;;;3.10;100.00;98854.97;5093727;28;20226;-78
2023/11/26 10:13:03;;;;;;;0.53;0.53;;;;;;;3.33;100.00;98854.72;5090998;28;20668;-80
2023/11/26 10:15:32;;;;;;;0.57;0.57;;;;;;;3.49;100.00;98858.94;5094110;28;20188;-79
2023/11/26 10:18:13;;;;;;;0.40;0.40;;;;;;;3.65;100.00;98863.09;5079695;28;20223;-80
2023/11/26 10:20:50;;;;;;;0.50;0.50;;;;;;;3.84;100.00;98857.94;5097321;28;20214;-78
2023/11/26 10:23:28;;;;;;;0.87;0.67;;;;;;;4.03;100.00;98852.94;5093232;28;20261;-80
2023/11/26 10:25:55;;;;;;;0.73;0.73;;;;;;;4.04;100.00;98860.69;5087196;28;20290;-78
2023/11/26 10:28:25;;;;;;;0.40;0.40;;;;;;;4.14;100.00;98870.94;5093204;28;20193;-78
2023/11/26 10:31:05;;;;;;;0.57;0.43;;;;;;;4.06;100.00;98865.81;5092090;28;20268;-78
2023/11/26 10:33:32;;;;;;;0.73;0.50;;;;;;;3.65;100.00;98863.91;5086003;28;20294;-81
2023/11/26 10:35:59;;;;;;;0.63;0.30;;;;;;;3.44;100.00;98870.13;5087537;28;20192;-81
2023/11/26 10:38:35;;;;;;;0.43;0.40;;;;;;;3.28;100.00;98869.56;5069354;28;20204;-79
2023/11/26 10:41:03;;;;;;;0.97;0.30;;;;;;;3.31;100.00;98872.63;5087241;28;20645;-78
2023/11/26 10:43:31;;;;;;;0.53;0.30;;;;;;;3.33;100.00;98864.50;5092773;28;20946;-79
2023/11/26 10:46:12;;;;;;;0.70;0.40;;;;;;;3.30;100.00;98870.19;5087351;28;20719;-78
2023/11/26 10:48:49;;;;;;;0.40;0.30;;;;;;;3.52;100.00;98888.50;5089950;28;20224;-79
2023/11/26 10:51:26;;;;;;;0.53;0.20;;;;;;;3.80;100.00;98867.28;5089805;28;20561;-80
2023/11/26 10:54:10;;;;;;;1.13;0.30;;;;;;;3.66;100.00;98867.41;5093043;28;20199;-80
2023/11/26 10:56:39;;;;;;;0.50;0.30;;;;;;;3.70;100.00;98845.63;5098136;28;20260;-81
2023/11/26 10:59:08;;;;;;;0.97;0.30;;;;;;;3.74;100.00;98864.59;5097301;28;20649;-80
2023/11/26 11:01:37;;;;;;;1.50;1.40;;;;;;;3.61;100.00;98844.13;5096954;28;20196;-80
2023/11/26 11:04:13;;;;;;;0.57;0.53;;;;;;;3.38;100.00;98847.03;5091717;28;20212;-84
2023/11/26 11:06:43;;;;;;;0.60;0.27;;;;;;;3.43;99.65;98838.50;5104504;28;20204;-79
2023/11/26 11:09:18;;;;;;;0.73;0.63;;;;;;;3.28;98.45;98837.78;5088952;28;20196;-79
2023/11/26 11:11:59;;;;;;;0.33;0.23;;;;;;;3.19;100.00;98852.16;5091447;28;20257;-79
2023/11/26 11:14:26;;;;;;;0.93;0.50;;;;;;;3.29;100.00;98839.44;5098107;28;20283;-79
2023/11/26 11:16:54;;;;;;;0.43;0.40;;;;;;;3.31;100.00;98843.50;5100926;28;20206;-80
2023/11/26 11:19:58;;;;;;;1.40;0.30;;;;;;;3.29;96.81;98820.91;5097079;28;20189;-79
2023/11/26 11:22:35;;;;;;;0.20;0.20;;;;;;;3.16;96.93;98840.16;5098385;28;20196;-80
2023/11/26 11:25:21;;;;;;;0.70;0.40;;;;;;;3.22;97.39;98836.72;5077505;28;20206;-81
2023/11/26 11:27:49;;;;;;;15.53;8.33;;;;;;;3.32;97.04;98844.31;5089671;28;20249;-80
2023/11/26 11:30:42;;;;;;;1.33;0.93;;;;;;;3.39;97.66;98847.84;5092406;28;20223;-80
2023/11/26 11:33:10;;;;;;;0.37;0.30;;;;;;;3.56;95.68;98849.19;5080740;28;20286;-79
2023/11/26 11:35:45;;;;;;;0.50;0.30;;;;;;;3.54;96.13;98856.53;5092342;28;20236;-82
2023/11/26 11:38:15;;;;;;;0.70;0.50;;;;;;;3.64;97.72;98856.19;5095926;28;20261;-80
2023/11/26 11:41:00;;;;;;;0.40;0.30;;;;;;;3.76;97.27;98850.16;5084951;28;20309;-81
2023/11/26 11:43:29;;;;;;;0.50;0.40;;;;;;;3.85;96.38;98856.09;5093864;28;20222;-80
2023/11/26 11:45:59;;;;;;;1.13;0.50;;;;;;;3.97;99.52;98858.00;5095969;28;20208;-80
2023/11/26 11:48:41;;;;;;;0.50;0.50;;;;;;;4.03;100.00;98853.75;5088454;28;20252;-79
2023/11/26 11:51:43;;;;;;;0.60;0.60;;;;;;;4.02;100.00;98849.47;5105299;28;20221;-78
2023/11/26 11:54:35;;;;;;;0.70;0.70;;;;;;;4.05;100.00;98857.03;5099843;28;20183;-78